Time;durP1;ratioP1;P1;durP2;ratioP2;P2;SDS_P1;SDS_P2;PMS_P1;PMS_P2;Temp;Humidity;BMP_temperature;BMP_pressure;BME280_temperature;BME280_humidity;BME280_pressure;Samples;Min_cycle;Max_cycle;Signal;HPM_P1;HPM_P2
2022/12/01 00:00:15;;;;;;;65.40;29.10;;;3.30;99.90;;;;;;5096839;28;20926;-70
2022/12/01 00:02:42;;;;;;;64.30;31.17;;;3.40;99.90;;;;;;5096509;28;20508;-70
2022/12/01 00:05:09;;;;;;;55.10;27.10;;;3.40;99.90;;;;;;5096978;28;20548;-70
2022/12/01 00:07:37;;;;;;;55.53;27.70;;;3.40;99.90;;;;;;5095509;28;20928;-70
2022/12/01 00:12:49;;;;;;;57.37;28.87;;;3.30;99.90;;;;;;5096626;28;20487;-71
2022/12/01 00:15:16;;;;;;;64.53;30.70;;;3.30;99.90;;;;;;5096540;28;20475;-70
2022/12/01 00:17:44;;;;;;;66.37;29.67;;;3.20;99.90;;;;;;5097878;28;20461;-71
2022/12/01 00:20:12;;;;;;;60.20;29.07;;;3.20;99.90;;;;;;5096436;28;20522;-71
2022/12/01 00:22:42;;;;;;;61.57;31.80;;;3.20;99.90;;;;;;5097311;28;20564;-71
2022/12/01 00:25:09;;;;;;;56.13;28.80;;;3.20;99.90;;;;;;5096455;28;20563;-70
2022/12/01 00:27:36;;;;;;;62.47;29.87;;;3.20;99.90;;;;;;5096577;28;20496;-71
2022/12/01 00:30:04;;;;;;;58.90;28.73;;;3.20;99.90;;;;;;5097345;28;20563;-71
2022/12/01 00:32:31;;;;;;;61.63;29.47;;;3.10;99.90;;;;;;5096993;28;20628;-71
2022/12/01 00:34:58;;;;;;;55.23;28.10;;;3.00;99.90;;;;;;5097981;28;20828;-71
2022/12/01 00:37:25;;;;;;;63.33;31.07;;;3.00;99.90;;;;;;5096699;28;20512;-71
2022/12/01 00:39:53;;;;;;;59.50;28.90;;;2.90;99.90;;;;;;5096462;28;20540;-70
2022/12/01 00:42:20;;;;;;;68.40;32.30;;;2.90;99.90;;;;;;5096312;28;20568;-70
2022/12/01 00:44:47;;;;;;;70.73;31.57;;;2.90;99.90;;;;;;5097228;28;20453;-71
2022/12/01 00:47:14;;;;;;;66.40;30.33;;;3.00;99.90;;;;;;5099996;28;20551;-70
2022/12/01 00:49:44;;;;;;;73.40;31.33;;;3.00;99.90;;;;;;5100201;28;20844;-71
2022/12/01 00:52:11;;;;;;;63.83;29.43;;;3.00;99.90;;;;;;5099736;28;20453;-71
2022/12/01 00:54:38;;;;;;;63.93;31.23;;;3.00;99.90;;;;;;5099775;28;20536;-70
2022/12/01 00:57:06;;;;;;;65.70;28.73;;;2.90;99.90;;;;;;5099544;28;20543;-71
2022/12/01 00:59:33;;;;;;;66.90;30.00;;;2.90;99.90;;;;;;5099646;28;20838;-70
2022/12/01 01:02:00;;;;;;;69.97;31.43;;;2.90;99.90;;;;;;5099527;28;20842;-70
2022/12/01 01:04:30;;;;;;;65.73;29.70;;;2.90;99.90;;;;;;5099653;28;20543;-70
2022/12/01 01:06:56;;;;;;;65.57;28.63;;;2.90;99.90;;;;;;5099537;28;20555;-71
2022/12/01 01:09:23;;;;;;;70.90;31.80;;;3.00;99.90;;;;;;5099348;28;20536;-70
2022/12/01 01:11:51;;;;;;;69.53;31.47;;;3.00;99.90;;;;;;5099115;28;20464;-71
2022/12/01 01:14:20;;;;;;;65.03;32.07;;;3.00;99.90;;;;;;5099344;28;20540;-70
2022/12/01 01:16:47;;;;;;;66.97;29.00;;;3.00;99.90;;;;;;5099148;28;20454;-70
2022/12/01 01:19:14;;;;;;;67.43;30.03;;;3.10;99.90;;;;;;5099654;28;20544;-71
2022/12/01 01:21:41;;;;;;;64.40;29.83;;;3.10;99.90;;;;;;5099229;28;20950;-71
2022/12/01 01:24:08;;;;;;;67.47;29.83;;;3.20;99.90;;;;;;5099066;28;20568;-71
2022/12/01 01:26:36;;;;;;;67.10;30.87;;;3.30;99.90;;;;;;5099218;28;20454;-70
2022/12/01 01:29:04;;;;;;;63.00;27.97;;;3.30;99.90;;;;;;5099180;28;20548;-70
2022/12/01 01:31:33;;;;;;;60.27;28.87;;;3.30;99.90;;;;;;5098930;28;20457;-71
2022/12/01 01:34:00;;;;;;;62.87;30.20;;;3.30;99.90;;;;;;5098860;28;20449;-70
2022/12/01 01:36:27;;;;;;;70.43;30.90;;;3.30;99.90;;;;;;5098798;28;20575;-70
2022/12/01 01:38:54;;;;;;;62.77;30.47;;;3.30;99.90;;;;;;5099062;28;20548;-70
2022/12/01 01:41:23;;;;;;;64.87;29.23;;;3.30;99.90;;;;;;5099342;28;20454;-70
2022/12/01 01:43:52;;;;;;;65.37;30.13;;;3.30;99.90;;;;;;5098756;28;20568;-70
2022/12/01 01:46:20;;;;;;;75.50;31.70;;;3.30;99.90;;;;;;5098274;28;20548;-70
2022/12/01 01:48:53;;;;;;;72.40;29.17;;;3.40;99.90;;;;;;5099077;28;20458;-70
2022/12/01 01:51:22;;;;;;;67.83;29.80;;;3.30;99.90;;;;;;5098686;28;20533;-71
2022/12/01 01:53:51;;;;;;;73.17;30.93;;;3.30;99.90;;;;;;5098946;28;20496;-71
2022/12/01 01:56:18;;;;;;;63.87;28.30;;;3.30;99.90;;;;;;5098310;28;21115;-71
2022/12/01 01:58:45;;;;;;;64.70;30.27;;;3.30;99.90;;;;;;5098489;28;20544;-71
2022/12/01 02:01:12;;;;;;;69.53;31.40;;;3.40;99.90;;;;;;5098687;28;20521;-71
2022/12/01 02:03:40;;;;;;;68.70;31.90;;;3.40;99.90;;;;;;5099171;28;20569;-70
2022/12/01 02:06:10;;;;;;;79.70;31.10;;;3.40;99.90;;;;;;5098761;28;20500;-70
2022/12/01 02:08:37;;;;;;;75.87;31.40;;;3.30;99.90;;;;;;5098768;28;20481;-71
2022/12/01 02:11:20;;;;;;;64.57;30.70;;;3.30;99.90;;;;;;5098657;28;20856;-71
2022/12/01 02:13:55;;;;;;;72.40;32.00;;;3.30;99.90;;;;;;5098707;28;20484;-70
2022/12/01 02:16:31;;;;;;;76.53;31.90;;;3.30;99.90;;;;;;5097918;28;20437;-72
2022/12/01 02:19:07;;;;;;;71.27;29.53;;;3.30;99.90;;;;;;5098802;28;20469;-71
2022/12/01 02:21:50;;;;;;;66.30;30.00;;;3.20;99.90;;;;;;5098717;28;20524;-71
2022/12/01 02:24:55;;;;;;;72.33;30.37;;;3.20;99.90;;;;;;5098737;28;20552;-71
2022/12/01 02:27:43;;;;;;;76.53;30.33;;;3.30;99.90;;;;;;5098153;28;20441;-71
2022/12/01 02:30:14;;;;;;;76.27;31.30;;;3.30;99.90;;;;;;5097922;28;20936;-71
2022/12/01 02:32:52;;;;;;;79.17;32.13;;;3.30;99.90;;;;;;5098062;28;20521;-70
2022/12/01 02:35:26;;;;;;;77.60;29.80;;;3.30;99.90;;;;;;5097765;28;20448;-70
2022/12/01 02:38:04;;;;;;;75.67;30.37;;;3.30;99.90;;;;;;5097464;28;20551;-71
2022/12/01 02:40:38;;;;;;;75.97;31.47;;;3.30;99.90;;;;;;5097710;28;20443;-70
2022/12/01 02:43:12;;;;;;;80.53;32.37;;;3.30;99.90;;;;;;5097329;28;20466;-71
2022/12/01 02:45:45;;;;;;;77.83;33.27;;;3.20;99.90;;;;;;5098067;28;20521;-70
2022/12/01 02:48:18;;;;;;;84.23;33.53;;;3.10;99.90;;;;;;5098079;28;20532;-71
2022/12/01 02:50:46;;;;;;;73.27;31.70;;;3.10;99.90;;;;;;5097678;28;20442;-70
2022/12/01 02:53:17;;;;;;;75.47;31.20;;;3.00;99.90;;;;;;5097546;28;20496;-71
2022/12/01 02:55:49;;;;;;;74.63;32.53;;;3.10;99.90;;;;;;5097624;28;20757;-71
2022/12/01 02:58:16;;;;;;;88.23;33.43;;;3.10;99.90;;;;;;5097978;28;20779;-71
2022/12/01 03:01:05;;;;;;;76.03;32.80;;;3.00;99.90;;;;;;5097629;28;20544;-71
2022/12/01 03:03:59;;;;;;;81.70;32.47;;;3.00;99.90;;;;;;5087357;28;20845;-71
2022/12/01 03:06:37;;;;;;;72.37;35.27;;;3.00;99.90;;;;;;5097308;28;20564;-71
2022/12/01 03:09:11;;;;;;;74.30;30.50;;;3.10;99.90;;;;;;5095956;28;20464;-70
2022/12/01 03:11:46;;;;;;;79.80;32.03;;;3.00;99.90;;;;;;5097427;28;20451;-70
2022/12/01 03:14:22;;;;;;;85.33;33.30;;;3.00;99.90;;;;;;5097125;28;20447;-70
2022/12/01 03:16:52;;;;;;;79.00;31.60;;;3.00;99.90;;;;;;5097202;28;20441;-71
2022/12/01 03:19:29;;;;;;;88.73;31.70;;;3.00;99.90;;;;;;5097003;28;20536;-70
2022/12/01 03:22:02;;;;;;;73.13;34.00;;;2.90;99.90;;;;;;5097301;28;20526;-70
2022/12/01 03:24:31;;;;;;;81.57;32.40;;;2.90;99.90;;;;;;5096919;28;20491;-71
2022/12/01 03:27:02;;;;;;;77.37;34.07;;;3.00;99.90;;;;;;5098312;28;20461;-70
2022/12/01 03:29:33;;;;;;;80.87;31.93;;;3.00;99.90;;;;;;5097730;28;20437;-71
2022/12/01 03:32:05;;;;;;;75.97;31.40;;;3.00;99.90;;;;;;5096837;28;20452;-71
2022/12/01 03:34:40;;;;;;;84.30;32.40;;;3.00;99.90;;;;;;5097102;28;20526;-71
2022/12/01 03:37:12;;;;;;;91.20;31.77;;;3.00;99.90;;;;;;5095998;28;20485;-71
2022/12/01 03:39:41;;;;;;;81.93;32.70;;;3.00;99.90;;;;;;5097222;28;20469;-71
2022/12/01 03:42:15;;;;;;;81.90;32.50;;;3.00;99.90;;;;;;5097418;28;20485;-71
2022/12/01 03:44:47;;;;;;;80.43;32.20;;;2.90;99.90;;;;;;5097226;28;20576;-71
2022/12/01 03:47:18;;;;;;;78.97;30.97;;;2.90;99.90;;;;;;5097099;28;20442;-71
2022/12/01 03:49:48;;;;;;;86.10;31.60;;;2.90;99.90;;;;;;5096875;28;20474;-71
2022/12/01 03:52:27;;;;;;;75.70;31.80;;;2.90;99.90;;;;;;5096997;28;20455;-71
2022/12/01 03:55:02;;;;;;;76.43;31.50;;;2.80;99.90;;;;;;5097178;28;20541;-70
2022/12/01 03:57:32;;;;;;;76.67;30.87;;;2.80;99.90;;;;;;5097067;28;20834;-70
2022/12/01 04:00:00;;;;;;;71.20;29.90;;;2.80;99.90;;;;;;5096636;28;20469;-70
2022/12/01 04:02:27;;;;;;;66.40;30.27;;;2.90;99.90;;;;;;5096871;28;20485;-70
2022/12/01 04:04:55;;;;;;;59.37;29.70;;;2.90;99.90;;;;;;5097000;28;21004;-70
2022/12/01 04:07:23;;;;;;;61.00;25.93;;;2.90;99.90;;;;;;5096510;28;20483;-70
2022/12/01 04:09:50;;;;;;;77.80;30.97;;;2.90;99.90;;;;;;5096139;28;20493;-70
2022/12/01 04:12:32;;;;;;;63.80;28.97;;;2.90;99.90;;;;;;5095441;28;20540;-70
2022/12/01 04:15:00;;;;;;;74.00;30.77;;;2.90;99.90;;;;;;5096969;28;20443;-71
2022/12/01 04:17:28;;;;;;;66.00;28.23;;;2.90;99.90;;;;;;5096774;28;20453;-71
2022/12/01 04:19:57;;;;;;;75.30;30.73;;;2.90;99.90;;;;;;5097060;28;20457;-71
2022/12/01 04:22:24;;;;;;;80.67;35.07;;;2.90;99.90;;;;;;5100742;28;20461;-71
2022/12/01 04:24:52;;;;;;;70.93;29.70;;;2.90;99.90;;;;;;5100079;28;20481;-70
2022/12/01 04:27:19;;;;;;;67.50;29.40;;;2.90;99.90;;;;;;5100225;28;20929;-70
2022/12/01 04:29:46;;;;;;;69.23;30.90;;;2.90;99.90;;;;;;5100752;28;20519;-70
2022/12/01 04:32:13;;;;;;;76.80;32.57;;;2.80;99.90;;;;;;5100412;28;20514;-70
2022/12/01 04:34:40;;;;;;;71.07;30.47;;;2.90;99.90;;;;;;5100104;28;20479;-70
2022/12/01 04:37:10;;;;;;;68.23;31.23;;;2.90;99.90;;;;;;5100209;28;20546;-71
2022/12/01 04:39:38;;;;;;;80.37;31.60;;;2.90;99.90;;;;;;5099410;28;20602;-71
2022/12/01 04:42:05;;;;;;;74.27;31.47;;;2.90;99.90;;;;;;5099921;28;20526;-71
2022/12/01 04:44:32;;;;;;;81.37;31.90;;;2.90;99.90;;;;;;5099873;28;20848;-70
2022/12/01 04:46:59;;;;;;;68.90;31.57;;;2.90;99.90;;;;;;5099476;28;20929;-70
2022/12/01 04:49:26;;;;;;;68.87;29.73;;;2.90;99.90;;;;;;5100341;28;20461;-70
2022/12/01 04:51:53;;;;;;;67.80;28.40;;;2.90;99.90;;;;;;5099899;28;20457;-70
2022/12/01 04:54:22;;;;;;;69.03;29.87;;;2.90;99.90;;;;;;5100176;28;20498;-70
2022/12/01 04:56:49;;;;;;;74.67;30.83;;;2.90;99.90;;;;;;5099843;28;20492;-70
2022/12/01 04:59:16;;;;;;;76.90;32.13;;;2.90;99.90;;;;;;5099971;28;20457;-70
2022/12/01 05:01:45;;;;;;;67.60;30.57;;;2.90;99.90;;;;;;5099737;28;20463;-70
2022/12/01 05:04:12;;;;;;;71.37;33.30;;;2.90;99.90;;;;;;5099442;28;20512;-71
2022/12/01 05:06:39;;;;;;;73.80;33.27;;;2.80;99.90;;;;;;5099282;28;20534;-70
2022/12/01 05:09:07;;;;;;;66.00;31.00;;;2.90;99.90;;;;;;5099434;28;20518;-71
2022/12/01 05:11:36;;;;;;;74.47;33.67;;;2.90;99.90;;;;;;5099489;28;20449;-70
2022/12/01 05:14:03;;;;;;;76.20;33.77;;;2.90;99.90;;;;;;5099091;28;20514;-70
2022/12/01 05:16:32;;;;;;;71.63;33.47;;;2.80;99.90;;;;;;5099239;28;20793;-70
2022/12/01 05:21:47;;;;;;;57.53;29.63;;;2.70;99.90;;;;;;5099665;28;20471;-70
2022/12/01 05:24:15;;;;;;;80.30;33.97;;;2.70;99.90;;;;;;5099299;28;20853;-70
2022/12/01 05:26:44;;;;;;;68.10;31.77;;;2.70;99.90;;;;;;5099260;28;20526;-70
2022/12/01 05:29:11;;;;;;;71.23;32.07;;;2.70;99.90;;;;;;5099234;28;20510;-70
2022/12/01 05:31:39;;;;;;;69.73;33.33;;;2.70;99.90;;;;;;5097980;28;20453;-70
2022/12/01 05:34:06;;;;;;;75.60;33.30;;;2.70;99.90;;;;;;5099134;28;20544;-71
2022/12/01 05:36:33;;;;;;;67.90;32.60;;;2.70;99.90;;;;;;5098750;28;20481;-70
2022/12/01 05:39:00;;;;;;;68.63;32.70;;;2.70;99.90;;;;;;5098917;28;20839;-70
2022/12/01 05:41:27;;;;;;;80.73;35.97;;;2.70;99.90;;;;;;5098941;28;20922;-70
2022/12/01 05:43:58;;;;;;;69.33;31.00;;;2.60;99.90;;;;;;5098711;28;20481;-70
2022/12/01 05:46:25;;;;;;;66.23;32.27;;;2.60;99.90;;;;;;5098559;28;20438;-70
2022/12/01 05:48:52;;;;;;;63.83;32.00;;;2.60;99.90;;;;;;5098611;28;20457;-70
2022/12/01 05:51:19;;;;;;;69.13;32.07;;;2.60;99.90;;;;;;5098554;28;20457;-70
2022/12/01 05:53:46;;;;;;;68.07;31.87;;;2.70;99.90;;;;;;5098402;28;20511;-70
2022/12/01 05:56:13;;;;;;;67.43;33.57;;;2.70;99.90;;;;;;5098555;28;20529;-70
2022/12/01 05:58:40;;;;;;;61.37;32.87;;;2.70;99.90;;;;;;5098470;28;20461;-70
2022/12/01 06:01:08;;;;;;;68.27;32.40;;;2.70;99.90;;;;;;5098450;28;20483;-71
2022/12/01 06:03:35;;;;;;;58.67;31.10;;;2.70;99.90;;;;;;5098203;28;20481;-70
2022/12/01 06:06:02;;;;;;;72.00;33.23;;;2.70;99.90;;;;;;5099167;28;20522;-70
2022/12/01 06:08:29;;;;;;;69.00;33.87;;;2.80;99.90;;;;;;5098853;28;20450;-71
2022/12/01 06:10:59;;;;;;;70.07;33.67;;;2.70;99.90;;;;;;5098015;28;20465;-71
2022/12/01 06:13:26;;;;;;;68.73;32.60;;;2.70;99.90;;;;;;5098705;28;20534;-71
2022/12/01 06:15:57;;;;;;;74.40;32.50;;;2.70;99.90;;;;;;5098328;28;20836;-71
2022/12/01 06:18:27;;;;;;;69.80;32.97;;;2.70;99.90;;;;;;5098033;28;20530;-71
2022/12/01 06:20:54;;;;;;;69.50;34.17;;;2.70;99.90;;;;;;5097847;28;20487;-71
2022/12/01 06:23:21;;;;;;;66.17;33.40;;;2.70;99.90;;;;;;5097628;28;20457;-71
2022/12/01 06:25:48;;;;;;;70.73;33.17;;;2.70;99.90;;;;;;5097983;28;20851;-71
2022/12/01 06:28:15;;;;;;;67.23;33.40;;;2.70;99.90;;;;;;5098615;28;20579;-71
2022/12/01 06:30:42;;;;;;;73.00;32.30;;;2.70;99.90;;;;;;5098143;28;20472;-71
2022/12/01 06:33:09;;;;;;;69.87;33.57;;;2.70;99.90;;;;;;5098061;28;20645;-71
2022/12/01 06:35:38;;;;;;;71.03;34.40;;;2.70;99.90;;;;;;5098476;28;20828;-71
2022/12/01 06:38:05;;;;;;;67.87;33.37;;;2.70;99.90;;;;;;5098725;28;20442;-71
2022/12/01 06:40:32;;;;;;;71.87;35.17;;;2.70;99.90;;;;;;5098104;28;20453;-71
2022/12/01 06:43:01;;;;;;;77.37;35.57;;;2.70;99.90;;;;;;5097262;28;20914;-71
2022/12/01 06:45:28;;;;;;;85.87;40.53;;;2.70;99.90;;;;;;5097318;28;20804;-70
2022/12/01 06:47:56;;;;;;;74.50;33.63;;;2.70;99.90;;;;;;5097192;28;20956;-71
2022/12/01 06:50:24;;;;;;;64.17;32.63;;;2.70;99.90;;;;;;5097453;28;20511;-71
2022/12/01 06:52:52;;;;;;;74.30;36.70;;;2.80;99.90;;;;;;5097344;28;20531;-71
2022/12/01 06:55:19;;;;;;;65.47;32.93;;;2.80;99.90;;;;;;5101565;28;20461;-73
2022/12/01 06:57:46;;;;;;;75.20;34.87;;;2.80;99.90;;;;;;5099336;28;20601;-72
2022/12/01 07:00:17;;;;;;;69.73;35.03;;;2.80;99.90;;;;;;5099773;28;20468;-73
2022/12/01 07:02:44;;;;;;;70.87;35.70;;;2.70;99.90;;;;;;5100357;28;20446;-72
2022/12/01 07:05:11;;;;;;;68.47;34.80;;;2.70;99.90;;;;;;5100821;28;20493;-73
2022/12/01 07:07:39;;;;;;;75.17;36.23;;;2.70;99.90;;;;;;5101065;28;20457;-73
2022/12/01 07:10:10;;;;;;;74.67;33.77;;;2.60;99.90;;;;;;5099379;28;20461;-73
2022/12/01 07:12:37;;;;;;;76.87;37.20;;;2.60;99.90;;;;;;5099085;28;20437;-73
2022/12/01 07:15:06;;;;;;;86.57;36.17;;;2.60;99.90;;;;;;5099433;28;20506;-73
2022/12/01 07:17:33;;;;;;;80.90;36.87;;;2.60;99.90;;;;;;5099331;28;20820;-73
2022/12/01 07:20:00;;;;;;;84.73;36.03;;;2.70;99.90;;;;;;5099444;28;20487;-72
2022/12/01 07:22:29;;;;;;;79.47;37.27;;;2.70;99.90;;;;;;5098587;28;20457;-73
2022/12/01 07:24:56;;;;;;;79.27;35.77;;;2.70;99.90;;;;;;5098422;28;20546;-73
2022/12/01 07:27:24;;;;;;;79.07;36.53;;;2.70;99.90;;;;;;5098339;28;20514;-73
2022/12/01 07:29:51;;;;;;;84.37;40.50;;;2.70;99.90;;;;;;5098317;28;20457;-73
2022/12/01 07:32:18;;;;;;;85.90;39.93;;;2.70;99.90;;;;;;5097811;28;20453;-73
2022/12/01 07:34:45;;;;;;;98.13;40.87;;;2.70;99.90;;;;;;5097593;28;20852;-73
2022/12/01 07:37:12;;;;;;;84.73;37.87;;;2.80;99.90;;;;;;5098138;28;20473;-73
2022/12/01 07:39:39;;;;;;;110.73;42.73;;;2.80;99.90;;;;;;5098921;28;20461;-73
2022/12/01 07:42:06;;;;;;;93.83;40.73;;;2.80;99.90;;;;;;5097813;28;20458;-73
2022/12/01 07:44:34;;;;;;;96.90;39.60;;;2.80;99.90;;;;;;5098312;28;20554;-73
2022/12/01 07:47:01;;;;;;;106.43;40.83;;;2.90;99.90;;;;;;5097700;28;20453;-73
2022/12/01 07:49:28;;;;;;;102.17;41.13;;;2.90;99.90;;;;;;5097547;28;20522;-73
2022/12/01 07:51:55;;;;;;;102.03;44.23;;;2.90;99.90;;;;;;5098264;28;20461;-73
2022/12/01 07:54:24;;;;;;;102.13;43.43;;;2.90;99.90;;;;;;5102004;28;20457;-72
2022/12/01 07:56:51;;;;;;;102.20;42.77;;;2.90;99.90;;;;;;5108089;28;20449;-72
2022/12/01 07:59:18;;;;;;;94.73;40.80;;;2.90;99.90;;;;;;5104556;28;20449;-73
2022/12/01 08:01:46;;;;;;;107.23;43.60;;;2.90;99.90;;;;;;5104223;28;20937;-73
2022/12/01 08:04:13;;;;;;;111.00;45.53;;;3.00;99.90;;;;;;5104868;28;20483;-73
2022/12/01 08:06:40;;;;;;;118.13;45.40;;;3.00;99.90;;;;;;5104971;28;20456;-73
2022/12/01 08:09:07;;;;;;;110.47;44.20;;;3.00;99.90;;;;;;5105059;28;20457;-73
2022/12/01 08:11:34;;;;;;;102.87;43.87;;;3.00;99.90;;;;;;5105086;28;20820;-72
2022/12/01 08:14:01;;;;;;;113.50;43.67;;;3.00;99.90;;;;;;5104110;28;20461;-72
2022/12/01 08:16:29;;;;;;;125.37;45.47;;;3.00;99.90;;;;;;5104539;28;20465;-73
2022/12/01 08:18:58;;;;;;;112.50;43.87;;;3.00;99.90;;;;;;5104350;28;20754;-72
2022/12/01 08:21:25;;;;;;;103.53;43.70;;;3.00;99.90;;;;;;5104748;28;20483;-72
2022/12/01 08:23:56;;;;;;;98.77;41.60;;;3.10;99.90;;;;;;5105465;28;20851;-73
2022/12/01 08:26:24;;;;;;;99.30;42.07;;;3.10;99.90;;;;;;5105825;28;20522;-73
2022/12/01 08:28:51;;;;;;;111.67;42.43;;;3.10;99.90;;;;;;5106212;28;20835;-72
2022/12/01 08:31:20;;;;;;;101.80;41.77;;;3.10;99.90;;;;;;5106231;28;20482;-72
2022/12/01 08:33:49;;;;;;;101.47;44.27;;;3.10;99.90;;;;;;5104046;28;20460;-73
2022/12/01 08:36:18;;;;;;;103.97;43.80;;;3.10;99.90;;;;;;5104494;28;20797;-73
2022/12/01 08:38:46;;;;;;;105.30;45.53;;;3.10;99.90;;;;;;5104904;28;20457;-73
2022/12/01 08:41:14;;;;;;;106.80;43.70;;;3.10;99.90;;;;;;5105134;28;20461;-73
2022/12/01 08:43:43;;;;;;;108.70;45.10;;;3.10;99.90;;;;;;5105193;28;20991;-73
2022/12/01 08:46:11;;;;;;;98.10;43.80;;;3.10;99.90;;;;;;5108571;28;20507;-72
2022/12/01 08:48:39;;;;;;;111.73;44.20;;;3.10;99.90;;;;;;5111143;28;20517;-73
2022/12/01 08:51:08;;;;;;;101.37;44.07;;;3.20;99.90;;;;;;5110235;28;20918;-73
2022/12/01 08:53:39;;;;;;;103.30;43.17;;;3.20;99.90;;;;;;5109828;28;20521;-73
2022/12/01 08:56:09;;;;;;;116.20;46.50;;;3.20;99.90;;;;;;5109711;28;20462;-72
2022/12/01 08:58:37;;;;;;;106.83;43.87;;;3.20;99.90;;;;;;5109768;28;20453;-72
2022/12/01 09:01:06;;;;;;;108.40;44.93;;;3.20;99.90;;;;;;5109084;28;20449;-72
2022/12/01 09:03:34;;;;;;;100.53;43.03;;;3.20;99.90;;;;;;5107898;28;20936;-72
2022/12/01 09:06:03;;;;;;;114.10;43.63;;;3.20;99.90;;;;;;5107140;28;20473;-72
2022/12/01 09:08:34;;;;;;;118.23;47.57;;;3.20;99.90;;;;;;5104812;28;20465;-72
2022/12/01 09:11:05;;;;;;;162.77;72.10;;;3.20;99.90;;;;;;5104784;28;20437;-72
2022/12/01 09:13:32;;;;;;;117.77;47.20;;;3.20;99.90;;;;;;5105131;28;20445;-72
2022/12/01 09:16:01;;;;;;;113.73;46.20;;;3.20;99.90;;;;;;5106338;28;20453;-72
2022/12/01 09:18:28;;;;;;;106.50;44.67;;;3.20;99.90;;;;;;5105293;28;20457;-72
2022/12/01 09:20:56;;;;;;;112.07;45.17;;;3.10;99.90;;;;;;5105349;28;20457;-73
2022/12/01 09:23:23;;;;;;;104.57;44.80;;;3.10;99.90;;;;;;5105638;28;20461;-74
2022/12/01 09:25:52;;;;;;;102.17;42.87;;;3.00;99.90;;;;;;5106108;28;20477;-73
2022/12/01 09:28:20;;;;;;;97.93;43.13;;;3.10;99.90;;;;;;5104498;28;20457;-72
2022/12/01 09:30:47;;;;;;;103.80;42.77;;;3.10;99.90;;;;;;5104688;28;20449;-73
2022/12/01 09:33:14;;;;;;;93.90;42.13;;;3.10;99.90;;;;;;5104821;28;20449;-72
2022/12/01 09:35:41;;;;;;;101.70;43.47;;;3.10;99.90;;;;;;5105064;28;20450;-72
2022/12/01 09:38:12;;;;;;;95.30;42.33;;;3.00;99.90;;;;;;5105437;28;20503;-72
2022/12/01 09:40:41;;;;;;;113.57;43.83;;;2.90;99.90;;;;;;5104741;28;20453;-72
2022/12/01 09:43:16;;;;;;;106.97;42.30;;;2.90;99.90;;;;;;5103010;28;20464;-72
2022/12/01 09:45:53;;;;;;;98.83;41.17;;;2.90;99.90;;;;;;5099872;28;20510;-72
2022/12/01 09:48:27;;;;;;;101.27;42.77;;;2.90;99.90;;;;;;5102826;28;20471;-72
2022/12/01 09:50:57;;;;;;;95.47;40.47;;;3.00;99.90;;;;;;5103830;28;20452;-73
2022/12/01 09:53:27;;;;;;;89.73;40.50;;;3.00;99.90;;;;;;5103843;28;20434;-72
2022/12/01 09:55:55;;;;;;;89.80;37.50;;;3.10;99.90;;;;;;5103668;28;20461;-72
2022/12/01 09:58:27;;;;;;;93.93;38.10;;;3.10;99.90;;;;;;5104802;28;20457;-72
2022/12/01 10:00:56;;;;;;;83.33;38.80;;;3.10;99.90;;;;;;5103899;28;20533;-72
2022/12/01 10:03:33;;;;;;;90.67;39.20;;;3.10;99.90;;;;;;5103820;28;20461;-72
2022/12/01 10:06:06;;;;;;;77.17;35.43;;;3.10;99.90;;;;;;5104157;28;20497;-73
2022/12/01 10:08:39;;;;;;;87.23;39.50;;;3.20;99.90;;;;;;5104250;28;20477;-72
2022/12/01 10:11:11;;;;;;;81.87;37.03;;;3.20;99.90;;;;;;5104427;28;20441;-72
2022/12/01 10:13:39;;;;;;;86.73;40.10;;;3.20;99.90;;;;;;5103959;28;20461;-72
2022/12/01 10:16:10;;;;;;;78.53;36.80;;;3.20;99.90;;;;;;5103877;28;20453;-73
2022/12/01 10:18:49;;;;;;;74.77;36.47;;;3.20;99.90;;;;;;5103023;28;20445;-73
2022/12/01 10:21:33;;;;;;;76.90;38.30;;;3.20;99.90;;;;;;5104361;28;20438;-72
2022/12/01 10:24:15;;;;;;;79.07;37.83;;;3.20;99.90;;;;;;5103368;28;20441;-72
2022/12/01 10:26:50;;;;;;;80.73;36.93;;;3.20;99.90;;;;;;5103662;28;20468;-72
2022/12/01 10:29:31;;;;;;;74.83;36.20;;;3.20;99.90;;;;;;5104090;28;20437;-72
2022/12/01 10:32:04;;;;;;;75.60;35.60;;;3.20;99.90;;;;;;5103721;28;20446;-72
2022/12/01 10:34:35;;;;;;;81.10;37.23;;;3.10;99.90;;;;;;5104640;28;20438;-72
2022/12/01 10:37:05;;;;;;;78.27;38.20;;;3.10;99.90;;;;;;5102440;28;20862;-72
2022/12/01 10:39:36;;;;;;;84.57;38.80;;;3.10;99.90;;;;;;5102940;28;20453;-73
2022/12/01 10:42:07;;;;;;;71.37;37.73;;;3.10;99.90;;;;;;5103650;28;20441;-72
2022/12/01 10:44:35;;;;;;;73.27;37.70;;;3.10;99.90;;;;;;5103965;28;20442;-72
2022/12/01 10:47:17;;;;;;;78.07;36.13;;;3.20;99.90;;;;;;5103974;28;20449;-73
2022/12/01 10:49:47;;;;;;;79.47;38.30;;;3.20;99.90;;;;;;5103605;28;20457;-74
2022/12/01 10:52:35;;;;;;;71.20;37.20;;;3.30;99.90;;;;;;5103725;28;20942;-72
2022/12/01 10:55:06;;;;;;;66.60;35.30;;;3.40;99.90;;;;;;5104713;28;20475;-72
2022/12/01 11:00:43;;;;;;;79.13;35.73;;;3.50;99.90;;;;;;5103198;28;20438;-73
2022/12/01 11:03:21;;;;;;;88.10;40.77;;;3.30;99.90;;;;;;5101313;28;20836;-72
2022/12/01 11:05:58;;;;;;;108.93;52.00;;;3.30;99.90;;;;;;5103094;28;20508;-72
2022/12/01 11:08:36;;;;;;;74.83;34.10;;;3.30;99.90;;;;;;5102339;28;20445;-73
2022/12/01 11:11:29;;;;;;;71.80;36.03;;;3.40;99.90;;;;;;5103585;28;20490;-72
2022/12/01 11:14:18;;;;;;;69.70;34.40;;;3.40;99.90;;;;;;5102561;28;20449;-72
2022/12/01 11:16:47;;;;;;;63.97;33.07;;;3.50;99.90;;;;;;5102339;28;20445;-72
2022/12/01 11:19:31;;;;;;;70.87;34.03;;;3.50;99.90;;;;;;5102533;28;20932;-73
2022/12/01 11:22:00;;;;;;;69.70;35.80;;;3.50;99.90;;;;;;5101850;28;20429;-73
2022/12/01 11:24:41;;;;;;;71.63;34.97;;;3.50;99.90;;;;;;5101057;28;20468;-72
2022/12/01 11:27:18;;;;;;;65.40;33.80;;;3.50;99.90;;;;;;5102653;28;20855;-73
2022/12/01 11:29:52;;;;;;;70.10;35.90;;;3.50;99.90;;;;;;5103020;28;20509;-72
2022/12/01 11:32:22;;;;;;;66.43;35.17;;;3.50;99.90;;;;;;5102769;28;20877;-72
2022/12/01 11:34:55;;;;;;;73.17;34.80;;;3.50;99.90;;;;;;5103535;28;20460;-72
2022/12/01 11:37:24;;;;;;;69.00;36.60;;;3.60;99.90;;;;;;5102796;28;20485;-72
2022/12/01 11:39:52;;;;;;;72.40;36.50;;;3.70;99.90;;;;;;5102813;28;20461;-72
2022/12/01 11:42:26;;;;;;;72.70;34.67;;;3.70;99.90;;;;;;5102605;28;20491;-72
2022/12/01 11:45:06;;;;;;;75.63;35.50;;;3.70;99.90;;;;;;5102393;28;20485;-72
2022/12/01 11:47:33;;;;;;;65.53;35.10;;;3.80;99.90;;;;;;5102484;28;20437;-72
2022/12/01 11:50:22;;;;;;;71.50;32.93;;;3.80;99.90;;;;;;5102598;28;20518;-72
2022/12/01 11:52:49;;;;;;;68.63;34.57;;;3.80;99.90;;;;;;5101881;28;20471;-72
2022/12/01 11:55:23;;;;;;;62.30;31.90;;;3.80;1.00;;;;;;5102847;28;20481;-72
2022/12/01 11:57:54;;;;;;;62.43;34.27;;;3.80;1.00;;;;;;5102728;28;20440;-73
2022/12/01 12:00:28;;;;;;;60.50;33.17;;;3.80;1.00;;;;;;5102684;28;20461;-73
2022/12/01 12:06:24;;;;;;;59.67;33.33;;;3.80;1.00;;;;;;5101320;28;20474;-72
2022/12/01 12:09:11;;;;;;;60.40;31.90;;;3.90;1.00;;;;;;5101553;28;20433;-73
2022/12/01 12:11:48;;;;;;;56.90;31.00;;;3.80;1.00;;;;;;5102427;28;20468;-72
2022/12/01 12:14:42;;;;;;;59.50;31.10;;;3.70;1.00;;;;;;5102106;28;20520;-73
2022/12/01 12:17:33;;;;;;;55.90;30.67;;;3.60;1.00;;;;;;5101692;28;20441;-73
2022/12/01 12:20:30;;;;;;;61.93;31.97;;;3.60;1.00;;;;;;5100938;28;20449;-72
2022/12/01 12:23:23;;;;;;;54.07;30.07;;;3.60;1.00;;;;;;5101146;28;20445;-73
2022/12/01 12:26:03;;;;;;;57.80;29.87;;;3.60;1.00;;;;;;5101324;28;20473;-73
2022/12/01 12:28:51;;;;;;;52.00;29.27;;;3.60;27.30;;;;;;5103042;28;20461;-73
2022/12/01 12:31:28;;;;;;;53.20;29.87;;;3.60;99.90;;;;;;5102441;28;20469;-72
2022/12/01 12:34:21;;;;;;;51.60;29.47;;;3.60;68.10;;;;;;5101239;28;20447;-72
2022/12/01 12:37:01;;;;;;;58.57;29.87;;;3.60;99.90;;;;;;5100613;28;20473;-73
2022/12/01 12:39:50;;;;;;;50.67;31.27;;;3.50;56.80;;;;;;5100748;28;20456;-73
2022/12/01 12:42:29;;;;;;;65.03;32.20;;;3.50;99.90;;;;;;5105007;28;20445;-73
2022/12/01 12:45:03;;;;;;;56.30;31.40;;;3.50;99.90;;;;;;5106094;28;20445;-73
2022/12/01 12:47:54;;;;;;;58.57;33.37;;;3.60;1.00;;;;;;5105140;28;20463;-74
2022/12/01 12:50:30;;;;;;;56.40;29.60;;;3.50;99.90;;;;;;5105066;28;20457;-73
2022/12/01 12:53:04;;;;;;;54.60;30.07;;;3.60;99.90;;;;;;5105249;28;20498;-72
2022/12/01 12:55:50;;;;;;;57.43;27.90;;;3.60;99.90;;;;;;5105323;28;20429;-72
2022/12/01 12:58:23;;;;;;;52.30;28.67;;;3.60;99.90;;;;;;5084650;28;20446;-73
2022/12/01 13:01:06;;;;;;;50.47;29.30;;;3.60;99.90;;;;;;5085275;28;20442;-73
2022/12/01 13:03:50;;;;;;;57.30;31.30;;;3.60;99.90;;;;;;5084853;28;20449;-72
2022/12/01 13:06:31;;;;;;;58.23;30.50;;;3.60;99.90;;;;;;5085057;28;20470;-72